Time;durP1;ratioP1;P1;durP2;ratioP2;P2;SDS_P1;SDS_P2;PMS_P1;PMS_P2;Temp;Humidity;BMP_temperature;BMP_pressure;BME280_temperature;BME280_humidity;BME280_pressure;Samples;Min_cycle;Max_cycle;Signal;HPM_P1;HPM_P2
2021/09/25 00:22:34;;;;;;;13.90;7.20;;;;;;;15.57;85.94;100180.31;21950872;79;188111;-87
2021/09/25 00:52:35;;;;;;;16.07;7.60;;;;;;;15.67;86.49;100165.52;21532398;79;99602;-89
2021/09/25 01:22:37;;;;;;;17.00;8.88;;;;;;;15.77;86.90;100166.56;21753773;79;99421;-90
2021/09/25 01:52:38;;;;;;;16.37;9.80;;;;;;;15.84;87.37;100163.68;21836273;78;99474;-89
2021/09/25 02:22:40;;;;;;;;;;;;;;;15.89;87.89;100160.44;21794739;79;99364;-88
2021/09/25 02:52:41;;;;;;;20.30;9.83;;;;;;;15.92;88.77;100156.22;21935892;78;98541;-89
2021/09/25 03:22:43;;;;;;;21.23;11.47;;;;;;;15.97;88.60;100184.89;21892542;79;99740;-88
2021/09/25 03:52:43;;;;;;;18.10;10.40;;;;;;;16.02;88.85;100177.48;21611572;80;99929;-88
2021/09/25 04:22:44;;;;;;;19.50;10.50;;;;;;;16.06;89.15;100187.14;21762546;79;99914;-89
2021/09/25 04:52:46;;;;;;;18.27;11.57;;;;;;;16.07;89.57;100197.06;21747984;79;129678;-88
2021/09/25 05:22:47;;;;;;;17.47;10.80;;;;;;;16.07;89.96;100206.16;21783225;79;117554;-88
2021/09/25 05:52:48;;;;;;;17.40;11.15;;;;;;;16.21;90.20;100223.22;21789918;79;99974;-88
2021/09/25 06:22:49;;;;;;;17.28;12.28;;;;;;;16.45;90.01;100231.81;21739283;79;99499;-89
2021/09/25 06:52:50;;;;;;;20.52;12.40;;;;;;;16.80;89.74;100256.23;21773303;80;100129;-89
2021/09/25 07:22:51;;;;;;;23.55;15.00;;;;;;;17.02;89.52;100269.36;21784214;79;106409;-88
2021/09/25 07:52:56;;;;;;;20.17;14.30;;;;;;;16.79;92.60;100315.19;21595291;79;128717;-88
2021/09/25 08:22:56;;;;;;;19.92;12.68;;;;;;;16.99;93.83;100325.00;21523683;80;223307;-87
2021/09/25 08:52:58;;;;;;;16.90;10.83;;;;;;;17.59;92.48;100340.84;21759343;80;175391;-88
2021/09/25 09:23:17;;;;;;;13.40;8.33;;;;;;;18.27;90.35;100369.73;21629631;79;100407;-85
2021/09/25 09:53:18;;;;;;;11.97;7.70;;;;;;;18.93;87.80;100395.95;21689539;79;99551;-85
2021/09/25 10:23:21;;;;;;;11.25;7.37;;;;;;;19.29;84.48;100409.27;21165300;82;99555;-85
2021/09/25 10:53:32;;;;;;;9.07;5.63;;;;;;;19.48;82.56;100431.50;20892323;83;99443;-86
2021/09/25 11:23:46;;;;;;;14.40;7.28;;;;;;;19.21;82.94;100465.02;20815001;81;99343;-85
2021/09/25 11:53:56;;;;;;;9.15;5.65;;;;;;;18.92;85.39;100473.87;20833467;82;99500;-85
2021/09/25 12:24:04;;;;;;;10.80;4.83;;;;;;;19.58;85.04;100495.27;21068050;81;99549;-86
2021/09/25 12:54:10;;;;;;;8.37;4.93;;;;;;;20.71;78.27;100489.01;21190930;80;99550;-85
2021/09/25 13:24:12;;;;;;;9.30;5.97;;;;;;;20.23;80.63;100518.55;21179910;82;99308;-86
2021/09/25 13:54:13;;;;;;;11.77;7.53;;;;;;;20.23;80.63;100518.55;21382465;81;99262;-86
2021/09/25 14:24:16;;;;;;;10.78;6.92;;;;;;;19.52;82.99;100532.67;21310859;80;119079;-85
2021/09/25 14:54:18;;;;;;;7.97;4.90;;;;;;;19.10;87.05;100523.87;21312756;81;168158;-85
2021/09/25 15:24:19;;;;;;;11.12;5.00;;;;;;;19.03;87.28;100535.78;21287732;81;99742;-87
2021/09/25 15:54:20;;;;;;;8.27;4.70;;;;;;;19.06;87.23;100559.42;21301011;81;99850;-86
2021/09/25 16:24:22;;;;;;;8.38;4.53;;;;;;;18.92;87.29;100578.45;21143801;81;105151;-87
2021/09/25 16:54:23;;;;;;;8.37;4.53;;;;;;;18.67;87.75;100597.08;21700301;80;99474;-85
2021/09/25 17:24:23;;;;;;;9.20;5.87;;;;;;;18.40;88.22;100630.42;21627075;80;99713;-87
2021/09/25 17:54:24;;;;;;;15.38;9.40;;;;;;;18.01;88.81;100657.52;21320357;81;99244;-88
2021/09/25 18:24:25;;;;;;;23.10;14.87;;;;;;;17.46;89.43;100681.37;21673355;80;99395;-89
2021/09/25 18:54:26;;;;;;;16.15;11.33;;;;;;;17.19;90.90;100704.13;21657097;80;131997;-88
2021/09/25 19:24:27;;;;;;;14.53;11.40;;;;;;;16.96;92.02;100720.66;21659690;80;100075;-89
2021/09/25 19:54:28;;;;;;;12.33;8.60;;;;;;;16.88;93.70;100744.16;21348789;80;100111;-88
2021/09/25 20:24:29;;;;;;;12.20;8.90;;;;;;;16.91;94.13;100778.11;21515445;80;102795;-88
2021/09/25 20:54:30;;;;;;;13.30;9.90;;;;;;;16.92;94.07;100774.92;21428474;81;99939;-90
2021/09/25 21:24:33;;;;;;;16.30;11.73;;;;;;;16.89;93.85;100782.69;21415245;81;99374;-89
2021/09/25 21:54:35;;;;;;;20.57;13.87;;;;;;;16.80;93.96;100794.89;20996197;80;99597;-90
2021/09/25 22:24:36;;;;;;;21.05;14.25;;;;;;;16.76;94.09;100804.44;21484223;79;99733;-88
2021/09/25 22:54:37;;;;;;;20.94;15.42;;;;;;;16.71;94.30;100832.09;21575706;80;99875;-89
2021/09/25 23:24:38;;;;;;;19.50;15.00;;;;;;;16.59;94.69;100831.77;21619800;79;108811;-88
2021/09/25 23:54:39;;;;;;;20.97;16.07;;;;;;;16.60;94.65;100862.53;21219745;81;99975;-88
